createdAt,value
2018-04-15T00:02:27.910Z,101085
2018-04-15T00:04:56.053Z,101077
2018-04-15T00:07:24.207Z,101075
2018-04-15T00:09:52.381Z,101070
2018-04-15T00:12:20.567Z,101065
2018-04-15T00:14:48.732Z,101057
2018-04-15T00:17:17.001Z,101047
2018-04-15T00:19:45.154Z,101036
2018-04-15T00:22:14.105Z,101029
2018-04-15T00:24:42.267Z,101022
2018-04-15T00:27:10.433Z,101020
2018-04-15T00:29:38.615Z,101012
2018-04-15T00:32:06.763Z,101006
2018-04-15T00:34:34.927Z,101006
2018-04-15T00:37:03.862Z,101008
2018-04-15T00:39:32.045Z,101008
2018-04-15T00:42:00.169Z,101003
2018-04-15T00:44:28.328Z,100996
2018-04-15T00:46:57.257Z,101002
2018-04-15T00:49:25.469Z,101005
2018-04-15T00:51:53.646Z,100999
2018-04-15T00:54:21.831Z,101008
2018-04-15T00:56:50.878Z,101003
2018-04-15T00:59:19.096Z,100994
2018-04-15T01:01:48.008Z,100996
2018-04-15T01:04:16.178Z,100995
2018-04-15T01:06:45.090Z,100996
2018-04-15T01:09:13.246Z,100995
2018-04-15T01:11:41.424Z,101001
2018-04-15T01:14:09.568Z,101003
2018-04-15T01:16:38.484Z,100998
2018-04-15T01:19:06.624Z,100998
2018-04-15T01:21:34.786Z,100992
2018-04-15T01:24:02.937Z,100997
2018-04-15T01:26:31.120Z,100987
2018-04-15T01:28:59.277Z,100982
2018-04-15T01:31:27.446Z,100983
2018-04-15T01:33:55.617Z,100983
2018-04-15T01:36:23.814Z,100984
2018-04-15T01:38:51.967Z,100981
2018-04-15T01:41:20.125Z,100971
2018-04-15T01:43:48.269Z,100968
2018-04-15T01:46:17.201Z,100977
2018-04-15T01:48:45.372Z,100978
2018-04-15T01:51:13.517Z,100967
2018-04-15T01:53:41.665Z,100965
2018-04-15T01:56:10.599Z,100972
2018-04-15T01:58:38.729Z,100977
2018-04-15T02:01:07.676Z,100981
2018-04-15T02:03:35.842Z,100978
2018-04-15T02:06:04.010Z,100974
2018-04-15T02:08:32.173Z,100973
2018-04-15T02:11:00.306Z,100973
2018-04-15T02:13:29.227Z,100972
2018-04-15T02:15:57.365Z,100960
2018-04-15T02:18:25.506Z,100955
2018-04-15T02:20:53.634Z,100955
2018-04-15T02:23:21.783Z,100949
2018-04-15T02:25:49.948Z,100946
2018-04-15T02:28:18.143Z,100946
2018-04-15T02:30:47.070Z,100942
2018-04-15T02:33:15.213Z,100940
2018-04-15T02:35:43.406Z,100942
2018-04-15T02:38:11.576Z,100929
2018-04-15T02:40:39.743Z,100925
2018-04-15T02:43:07.980Z,100924
2018-04-15T02:45:36.150Z,100926
2018-04-15T02:48:04.322Z,100932
2018-04-15T02:50:32.471Z,100918
2018-04-15T02:53:00.650Z,100920
2018-04-15T02:55:28.811Z,100916
2018-04-15T02:57:56.970Z,100915
2018-04-15T03:00:25.128Z,100913
2018-04-15T03:02:53.319Z,100920
2018-04-15T03:05:21.514Z,100915
2018-04-15T03:07:49.661Z,100923
2018-04-15T03:10:17.830Z,100925
2018-04-15T03:12:46.008Z,100915
2018-04-15T03:15:14.155Z,100912
2018-04-15T03:17:42.332Z,100906
2018-04-15T03:20:10.482Z,100901
2018-04-15T03:22:38.637Z,100898
2018-04-15T03:25:06.807Z,100902
2018-04-15T03:27:34.974Z,100897
2018-04-15T03:30:03.123Z,100897
2018-04-15T03:32:31.259Z,100891
2018-04-15T03:34:59.439Z,100896
2018-04-15T03:37:27.622Z,100893
2018-04-15T03:39:55.789Z,100882
2018-04-15T03:42:23.944Z,100880
2018-04-15T03:44:52.853Z,100888
2018-04-15T03:47:21.030Z,100876
2018-04-15T03:49:49.233Z,100869
2018-04-15T03:52:18.451Z,100875
2018-04-15T03:57:48.115Z,100867
2018-04-15T04:00:22.369Z,100882
2018-04-15T04:02:51.384Z,100882
2018-04-15T04:05:19.563Z,100879
2018-04-15T04:07:47.735Z,100881
2018-04-15T04:10:15.888Z,100887
2018-04-15T04:12:44.076Z,100883
2018-04-15T04:15:12.314Z,100880
2018-04-15T04:17:58.191Z,100882
2018-04-15T04:20:43.982Z,100873
2018-04-15T04:23:29.846Z,100876
2018-04-15T04:26:04.602Z,100876
2018-04-15T04:28:32.768Z,100881
2018-04-15T04:31:00.959Z,100873
2018-04-15T04:33:29.153Z,100873
2018-04-15T04:35:57.314Z,100877
2018-04-15T04:38:25.486Z,100880
2018-04-15T04:40:53.638Z,100876
2018-04-15T04:43:21.807Z,100874
2018-04-15T04:45:49.978Z,100859
2018-04-15T04:48:18.986Z,100867
2018-04-15T04:50:47.281Z,100863
2018-04-15T04:56:28.543Z,100872
2018-04-15T04:58:56.728Z,100866
2018-04-15T05:01:31.030Z,100863
2018-04-15T05:03:59.535Z,100865
2018-04-15T05:06:27.715Z,100863
2018-04-15T05:08:55.893Z,100857
2018-04-15T05:11:24.219Z,100855
2018-04-15T05:13:52.405Z,100856
2018-04-15T05:19:35.024Z,100857
2018-04-15T05:28:04.055Z,100864
2018-04-15T05:30:32.206Z,100861
2018-04-15T05:33:01.184Z,100863
2018-04-15T05:41:36.948Z,100858
2018-04-15T05:44:10.626Z,100853
2018-04-15T05:46:38.840Z,100845
2018-04-15T05:49:07.057Z,100848
2018-04-15T05:51:35.217Z,100851
2018-04-15T05:54:04.194Z,100844
2018-04-15T05:56:32.370Z,100851
2018-04-15T05:59:00.537Z,100850
2018-04-15T06:01:39.245Z,100852
2018-04-15T06:04:38.478Z,100850
2018-04-15T06:07:07.456Z,100859
2018-04-15T06:09:40.709Z,100860
2018-04-15T06:15:26.942Z,100861
2018-04-15T06:17:55.134Z,100859
2018-04-15T06:20:23.273Z,100867
2018-04-15T06:22:51.429Z,100865
2018-04-15T06:25:19.615Z,100874
2018-04-15T06:27:47.791Z,100858
2018-04-15T06:33:17.787Z,100851
2018-04-15T06:35:46.002Z,100855
2018-04-15T06:38:14.185Z,100846
2018-04-15T06:40:42.317Z,100848
2018-04-15T06:43:10.503Z,100848
2018-04-15T06:45:38.708Z,100850
2018-04-15T06:48:06.875Z,100844
2018-04-15T06:50:35.035Z,100845
2018-04-15T06:53:03.297Z,100843
2018-04-15T06:55:31.476Z,100839
2018-04-15T06:57:59.665Z,100834
2018-04-15T07:00:27.839Z,100839
2018-04-15T07:02:56.023Z,100833
2018-04-15T07:05:24.264Z,100844
2018-04-15T07:07:52.457Z,100850
2018-04-15T07:10:20.625Z,100852
2018-04-15T07:12:48.928Z,100850
2018-04-15T07:15:17.077Z,100851
2018-04-15T07:17:45.250Z,100862
2018-04-15T07:20:13.416Z,100853
2018-04-15T07:22:41.938Z,100856
2018-04-15T07:25:10.160Z,100821
2018-04-15T07:27:38.327Z,100853
2018-04-15T07:30:06.561Z,100856
2018-04-15T07:32:34.719Z,100860
2018-04-15T07:35:02.979Z,100858
2018-04-15T07:37:31.847Z,100854
2018-04-15T07:40:00.129Z,100855
2018-04-15T07:42:28.377Z,100861
2018-04-15T07:44:56.546Z,100862
2018-04-15T07:47:24.743Z,100869
2018-04-15T07:49:52.915Z,100868
2018-04-15T07:52:21.092Z,100859
2018-04-15T07:54:49.289Z,100862
2018-04-15T07:57:17.472Z,100862
2018-04-15T07:59:45.617Z,100863
2018-04-15T08:02:13.785Z,100869
2018-04-15T08:04:41.943Z,100867
2018-04-15T08:07:10.302Z,100863
2018-04-15T08:09:38.488Z,100856
2018-04-15T08:12:06.668Z,100863
2018-04-15T08:14:34.934Z,100864
2018-04-15T08:17:03.107Z,100860
2018-04-15T08:19:31.450Z,100851
2018-04-15T08:21:59.593Z,100856
2018-04-15T08:24:27.775Z,100855
2018-04-15T08:26:55.926Z,100851
2018-04-15T08:29:24.128Z,100851
2018-04-15T08:31:52.271Z,100849
2018-04-15T08:34:20.421Z,100853
2018-04-15T08:36:48.578Z,100848
2018-04-15T08:39:16.750Z,100844
2018-04-15T08:41:44.898Z,100843
2018-04-15T08:44:13.096Z,100838
2018-04-15T08:46:42.040Z,100837
2018-04-15T08:49:10.217Z,100836
2018-04-15T08:51:38.433Z,100826
2018-04-15T08:54:06.641Z,100825
2018-04-15T08:56:35.024Z,100824
2018-04-15T08:59:03.274Z,100829
2018-04-15T09:01:31.506Z,100818
2018-04-15T09:03:59.660Z,100816
2018-04-15T09:06:27.848Z,100817
2018-04-15T09:08:56.025Z,100820
2018-04-15T09:11:24.230Z,100819
2018-04-15T09:13:52.396Z,100810
2018-04-15T09:16:21.305Z,100805
2018-04-15T09:18:49.465Z,100806
2018-04-15T09:21:18.406Z,100799
2018-04-15T09:23:46.618Z,100797
2018-04-15T09:26:14.851Z,100797
2018-04-15T09:28:43.009Z,100787
2018-04-15T09:31:12.084Z,100797
2018-04-15T09:33:40.260Z,100795
2018-04-15T09:36:08.429Z,100798
2018-04-15T09:38:36.609Z,100784
2018-04-15T09:41:04.828Z,100793
2018-04-15T09:43:32.962Z,100792
2018-04-15T09:46:01.118Z,100785
2018-04-15T09:48:29.280Z,100782
2018-04-15T09:50:58.229Z,100786
2018-04-15T09:53:26.412Z,100788
2018-04-15T09:55:54.597Z,100782
2018-04-15T09:58:22.805Z,100789
2018-04-15T10:00:51.097Z,100786
2018-04-15T10:03:19.318Z,100790
2018-04-15T10:05:48.312Z,100788
2018-04-15T10:08:16.496Z,100783
2018-04-15T10:10:44.664Z,100778
2018-04-15T10:13:12.829Z,100779
2018-04-15T10:15:41.755Z,100784
2018-04-15T10:18:09.934Z,100781
2018-04-15T10:20:38.104Z,100773
2018-04-15T10:23:06.321Z,100778
2018-04-15T10:25:34.466Z,100779
2018-04-15T10:28:02.605Z,100770
2018-04-15T10:30:30.926Z,100776
2018-04-15T10:32:59.137Z,100761
2018-04-15T10:35:28.191Z,100757
2018-04-15T10:37:56.412Z,100764
2018-04-15T10:40:25.436Z,100751
2018-04-15T10:42:53.743Z,100743
2018-04-15T10:45:21.931Z,100747
2018-04-15T10:47:50.109Z,100743
2018-04-15T10:50:18.280Z,100741
2018-04-15T10:52:46.452Z,100737
2018-04-15T10:55:15.438Z,100735
2018-04-15T10:57:44.217Z,100718
2018-04-15T11:00:12.387Z,100721
2018-04-15T11:02:41.360Z,100712
2018-04-15T11:05:11.285Z,100712
2018-04-15T11:07:39.598Z,100709
2018-04-15T11:10:07.893Z,100708
2018-04-15T11:12:37.105Z,100709
2018-04-15T11:15:05.386Z,100703
2018-04-15T11:17:33.668Z,100700
2018-04-15T11:20:02.989Z,100692
2018-04-15T11:22:31.419Z,100688
2018-04-15T11:24:59.696Z,100687
2018-04-15T11:27:27.888Z,100686
2018-04-15T11:29:56.060Z,100676
2018-04-15T11:32:24.281Z,100676
2018-04-15T11:34:52.439Z,100672
2018-04-15T11:37:20.573Z,100661
2018-04-15T11:39:48.744Z,100663
2018-04-15T11:42:17.434Z,100663
2018-04-15T11:44:45.585Z,100659
2018-04-15T11:47:14.513Z,100658
2018-04-15T11:49:42.732Z,100651
2018-04-15T11:55:10.235Z,100645
2018-04-15T11:57:38.461Z,100647
2018-04-15T12:00:06.664Z,100638
2018-04-15T12:02:34.826Z,100642
2018-04-15T12:05:02.974Z,100636
2018-04-15T12:07:31.123Z,100645
2018-04-15T12:09:59.335Z,100641
2018-04-15T12:12:27.526Z,100632
2018-04-15T12:14:55.711Z,100633
2018-04-15T12:17:24.656Z,100637
2018-04-15T12:19:52.835Z,100632
2018-04-15T12:22:20.986Z,100635
2018-04-15T12:24:49.181Z,100634
2018-04-15T12:27:17.366Z,100632
2018-04-15T12:29:45.564Z,100639
2018-04-15T12:32:14.492Z,100637
2018-04-15T12:34:42.689Z,100623
2018-04-15T12:37:10.861Z,100619
2018-04-15T12:39:39.094Z,100626
2018-04-15T12:42:07.255Z,100625
2018-04-15T12:44:36.261Z,100628
2018-04-15T12:47:04.415Z,100627
2018-04-15T12:49:32.602Z,100618
2018-04-15T12:52:00.789Z,100611
2018-04-15T12:54:28.943Z,100605
2018-04-15T12:56:57.843Z,100598
2018-04-15T12:59:26.008Z,100592
2018-04-15T13:01:54.933Z,100591
2018-04-15T13:04:24.319Z,100578
2018-04-15T13:06:52.499Z,100580
2018-04-15T13:09:20.675Z,100574
2018-04-15T13:11:48.956Z,100564
2018-04-15T13:14:17.124Z,100560
2018-04-15T13:16:45.285Z,100550
2018-04-15T13:19:13.462Z,100550
2018-04-15T13:21:41.645Z,100558
2018-04-15T13:24:09.853Z,100564
2018-04-15T13:26:38.001Z,100562
2018-04-15T13:29:06.146Z,100552
2018-04-15T13:31:34.330Z,100544
2018-04-15T13:34:02.485Z,100546
2018-04-15T13:36:30.640Z,100548
2018-04-15T13:38:59.587Z,100550
2018-04-15T13:41:27.737Z,100557
2018-04-15T13:43:56.023Z,100549
2018-04-15T13:46:24.172Z,100544
2018-04-15T13:48:52.401Z,100535
2018-04-15T13:51:20.650Z,100544
2018-04-15T13:53:48.859Z,100529
2018-04-15T13:56:17.039Z,100532
2018-04-15T13:58:45.216Z,100531
2018-04-15T14:01:14.153Z,100532
2018-04-15T14:03:42.308Z,100526
2018-04-15T14:06:10.473Z,100532
2018-04-15T14:08:38.681Z,100529
2018-04-15T14:11:06.855Z,100527
2018-04-15T14:13:34.989Z,100525
2018-04-15T14:16:03.178Z,100523
2018-04-15T14:18:31.518Z,100522
2018-04-15T14:21:00.503Z,100531
2018-04-15T14:23:29.227Z,100523
2018-04-15T14:25:57.451Z,100517
2018-04-15T14:28:25.643Z,100522
2018-04-15T14:30:54.580Z,100520
2018-04-15T14:33:22.780Z,100518
2018-04-15T14:35:50.917Z,100523
2018-04-15T14:38:19.101Z,100519
2018-04-15T14:40:47.284Z,100517
2018-04-15T14:43:15.444Z,100511
2018-04-15T14:45:43.612Z,100514
2018-04-15T14:48:11.810Z,100512
2018-04-15T14:50:39.973Z,100508
2018-04-15T14:53:08.236Z,100508
2018-04-15T14:55:36.333Z,100507
2018-04-15T14:58:04.644Z,100510
2018-04-15T15:00:33.590Z,100501
2018-04-15T15:03:01.824Z,100504
2018-04-15T15:05:30.839Z,100506
2018-04-15T15:07:59.009Z,100508
2018-04-15T15:10:27.187Z,100501
2018-04-15T15:12:55.322Z,100499
2018-04-15T15:15:24.257Z,100500
2018-04-15T15:17:52.444Z,100496
2018-04-15T15:20:20.635Z,100507
2018-04-15T15:22:48.883Z,100501
2018-04-15T15:25:17.783Z,100504
2018-04-15T15:27:45.937Z,100509
2018-04-15T15:30:14.118Z,100514
2018-04-15T15:32:42.351Z,100510
2018-04-15T15:35:11.300Z,100501
2018-04-15T15:37:39.566Z,100506
2018-04-15T15:40:07.732Z,100498
2018-04-15T15:42:35.916Z,100495
2018-04-15T15:45:04.171Z,100500
2018-04-15T15:47:32.360Z,100496
2018-04-15T15:50:00.551Z,100491
2018-04-15T15:52:28.733Z,100496
2018-04-15T15:54:56.911Z,100493
2018-04-15T15:57:25.058Z,100502
2018-04-15T15:59:53.193Z,100494
2018-04-15T16:02:21.400Z,100491
2018-04-15T16:04:49.557Z,100501
2018-04-15T16:07:17.870Z,100494
2018-04-15T16:09:46.219Z,100500
2018-04-15T16:12:14.468Z,100503
2018-04-15T16:14:42.636Z,100503
2018-04-15T16:17:10.807Z,100504
2018-04-15T16:19:39.003Z,100499
2018-04-15T16:22:07.174Z,100502
2018-04-15T16:24:35.364Z,100506
2018-04-15T16:27:03.518Z,100505
2018-04-15T16:29:31.670Z,100510
2018-04-15T16:31:59.945Z,100513
2018-04-15T16:34:28.085Z,100499
2018-04-15T16:36:56.259Z,100498
2018-04-15T16:39:24.587Z,100491
2018-04-15T16:41:53.784Z,100494
2018-04-15T16:44:21.931Z,100496
2018-04-15T16:46:50.095Z,100501
2018-04-15T16:49:18.323Z,100498
2018-04-15T16:51:46.533Z,100502
2018-04-15T16:54:14.696Z,100496
2018-04-15T16:56:42.918Z,100493
2018-04-15T16:59:11.136Z,100489
2018-04-15T17:01:39.312Z,100492
2018-04-15T17:04:07.631Z,100498
2018-04-15T17:06:35.936Z,100501
2018-04-15T17:09:04.113Z,100499
2018-04-15T17:11:32.276Z,100492
2018-04-15T17:14:00.484Z,100490
2018-04-15T17:16:29.564Z,100487
2018-04-15T17:18:59.560Z,100485
2018-04-15T17:21:28.061Z,100488
2018-04-15T17:23:57.096Z,100490
2018-04-15T17:26:26.029Z,100488
2018-04-15T17:28:54.233Z,100493
2018-04-15T17:31:22.429Z,100490
2018-04-15T17:33:51.402Z,100490
2018-04-15T17:36:19.548Z,100489
2018-04-15T17:38:47.723Z,100492
2018-04-15T17:41:15.973Z,100487
2018-04-15T17:43:44.151Z,100487
2018-04-15T17:46:12.315Z,100482
2018-04-15T17:48:40.532Z,100496
2018-04-15T17:51:08.826Z,100483
2018-04-15T17:53:37.073Z,100488
2018-04-15T17:56:05.510Z,100489
2018-04-15T17:58:33.850Z,100497
2018-04-15T18:01:02.028Z,100500
2018-04-15T18:03:30.257Z,100500
2018-04-15T18:05:58.506Z,100502
2018-04-15T18:08:26.723Z,100505
2018-04-15T18:10:54.882Z,100508
2018-04-15T18:13:23.066Z,100503
2018-04-15T18:15:51.240Z,100501
2018-04-15T18:18:19.402Z,100511
2018-04-15T18:20:47.580Z,100515
2018-04-15T18:23:15.823Z,100514
2018-04-15T18:25:44.080Z,100518
2018-04-15T18:28:12.420Z,100521
2018-04-15T18:30:40.882Z,100527
2018-04-15T18:33:09.229Z,100530
2018-04-15T18:35:37.411Z,100526
2018-04-15T18:38:05.600Z,100517
2018-04-15T18:40:33.802Z,100524
2018-04-15T18:43:02.011Z,100529
2018-04-15T18:45:30.232Z,100529
2018-04-15T18:47:58.390Z,100536
2018-04-15T18:50:26.657Z,100541
2018-04-15T18:52:54.863Z,100533
2018-04-15T18:55:23.087Z,100535
2018-04-15T18:57:51.279Z,100534
2018-04-15T19:00:19.510Z,100536
2018-04-15T19:02:48.661Z,100535
2018-04-15T19:05:17.117Z,100529
2018-04-15T19:07:45.518Z,100542
2018-04-15T19:10:13.885Z,100544
2018-04-15T19:12:42.119Z,100542
2018-04-15T19:15:10.332Z,100546
2018-04-15T19:17:38.523Z,100543
2018-04-15T19:20:06.732Z,100534
2018-04-15T19:22:34.935Z,100531
2018-04-15T19:25:03.126Z,100534
2018-04-15T19:27:31.327Z,100530
2018-04-15T19:29:59.522Z,100532
2018-04-15T19:32:27.728Z,100540
2018-04-15T19:34:55.940Z,100533
2018-04-15T19:37:24.196Z,100541
2018-04-15T19:39:52.553Z,100539
2018-04-15T19:42:20.880Z,100533
2018-04-15T19:44:50.004Z,100542
2018-04-15T19:47:18.326Z,100541
2018-04-15T19:49:47.375Z,100530
2018-04-15T19:52:15.570Z,100530
2018-04-15T19:54:43.765Z,100534
2018-04-15T19:57:12.938Z,100536
2018-04-15T19:59:41.127Z,100527
2018-04-15T20:02:09.327Z,100525
2018-04-15T20:04:37.505Z,100524
2018-04-15T20:07:05.732Z,100528
2018-04-15T20:09:34.733Z,100520
2018-04-15T20:12:02.929Z,100513
2018-04-15T20:14:31.109Z,100506
2018-04-15T20:16:59.389Z,100500
2018-04-15T20:19:27.593Z,100493
2018-04-15T20:21:55.815Z,100501
2018-04-15T20:24:24.005Z,100504
2018-04-15T20:26:52.159Z,100499
2018-04-15T20:29:20.326Z,100492
2018-04-15T20:31:48.515Z,100485
2018-04-15T20:34:16.702Z,100491
2018-04-15T20:36:44.843Z,100496
2018-04-15T20:39:13.002Z,100497
2018-04-15T20:41:41.942Z,100501
2018-04-15T20:44:10.120Z,100491
2018-04-15T20:46:38.322Z,100493
2018-04-15T20:49:07.268Z,100495
2018-04-15T20:51:35.449Z,100500
2018-04-15T20:54:03.644Z,100487
2018-04-15T20:56:31.870Z,100486
2018-04-15T20:59:00.055Z,100474
2018-04-15T21:01:28.252Z,100476
2018-04-15T21:03:56.423Z,100473
2018-04-15T21:06:24.577Z,100465
2018-04-15T21:08:52.731Z,100469
2018-04-15T21:11:20.882Z,100476
2018-04-15T21:13:49.816Z,100472
2018-04-15T21:16:17.951Z,100463
2018-04-15T21:18:46.135Z,100460
2018-04-15T21:21:14.307Z,100454
2018-04-15T21:23:42.476Z,100455
2018-04-15T21:26:10.714Z,100460
2018-04-15T21:28:39.033Z,100462
2018-04-15T21:31:07.304Z,100453
2018-04-15T21:33:35.495Z,100447
2018-04-15T21:36:03.668Z,100451
2018-04-15T21:38:31.863Z,100456
2018-04-15T21:41:00.011Z,100468
2018-04-15T21:43:28.209Z,100476
2018-04-15T21:45:56.411Z,100476
2018-04-15T21:48:24.570Z,100476
2018-04-15T21:50:52.751Z,100478
2018-04-15T21:53:20.932Z,100480
2018-04-15T21:55:49.833Z,100473
2018-04-15T21:58:18.111Z,100484
2018-04-15T22:00:47.043Z,100480
2018-04-15T22:03:15.368Z,100482
2018-04-15T22:05:44.322Z,100480
2018-04-15T22:08:12.518Z,100493
2018-04-15T22:10:40.671Z,100473
2018-04-15T22:13:08.828Z,100460
2018-04-15T22:15:36.982Z,100469
2018-04-15T22:18:05.174Z,100465
2018-04-15T22:20:33.380Z,100465
2018-04-15T22:23:01.566Z,100464
2018-04-15T22:25:29.789Z,100462
2018-04-15T22:27:58.120Z,100466
2018-04-15T22:30:26.415Z,100477
2018-04-15T22:32:54.595Z,100470
2018-04-15T22:35:22.782Z,100471
2018-04-15T22:37:51.026Z,100493
2018-04-15T22:40:19.233Z,100489
2018-04-15T22:42:48.292Z,100483
2018-04-15T22:45:18.369Z,100476
2018-04-15T22:47:52.140Z,100461
2018-04-15T22:50:20.320Z,100456
2018-04-15T22:52:48.492Z,100453
2018-04-15T22:55:16.842Z,100447
2018-04-15T22:57:45.763Z,100445
2018-04-15T23:00:14.041Z,100438
2018-04-15T23:02:42.225Z,100429
2018-04-15T23:05:21.686Z,100424
2018-04-15T23:07:49.895Z,100422
2018-04-15T23:10:18.103Z,100425
2018-04-15T23:12:46.260Z,100423
2018-04-15T23:15:14.465Z,100418
2018-04-15T23:17:42.681Z,100421
2018-04-15T23:20:10.840Z,100425
2018-04-15T23:22:39.027Z,100436
2018-04-15T23:25:07.193Z,100426
2018-04-15T23:27:35.342Z,100432
2018-04-15T23:30:04.526Z,100435
2018-04-15T23:32:32.838Z,100426
2018-04-15T23:35:01.067Z,100430
2018-04-15T23:37:29.250Z,100433
2018-04-15T23:39:58.587Z,100437
2018-04-15T23:42:26.848Z,100443
2018-04-15T23:44:55.032Z,100450
2018-04-15T23:47:23.218Z,100445
2018-04-15T23:49:52.204Z,100448
2018-04-15T23:52:20.375Z,100439
2018-04-15T23:54:48.833Z,100442
2018-04-15T23:57:31.232Z,100434
